sensor_id;sensor_type;location;lat;lon;timestamp;temperature;humidity
81842;DHT22;71284;50.918;7.092;2024-03-08T00:02:06;6.60;45.80
81842;DHT22;71284;50.918;7.092;2024-03-08T00:04:33;6.50;45.80
81842;DHT22;71284;50.918;7.092;2024-03-08T00:07:00;6.60;44.50
81842;DHT22;71284;50.918;7.092;2024-03-08T00:09:26;6.70;46.70
81842;DHT22;71284;50.918;7.092;2024-03-08T00:11:53;6.70;47.50
81842;DHT22;71284;50.918;7.092;2024-03-08T00:14:19;6.70;46.80
81842;DHT22;71284;50.918;7.092;2024-03-08T00:16:46;6.70;45.50
81842;DHT22;71284;50.918;7.092;2024-03-08T00:19:13;6.70;46.60
81842;DHT22;71284;50.918;7.092;2024-03-08T00:21:39;6.50;46.10
81842;DHT22;71284;50.918;7.092;2024-03-08T00:24:06;6.50;45.50
81842;DHT22;71284;50.918;7.092;2024-03-08T00:26:32;6.50;44.90
81842;DHT22;71284;50.918;7.092;2024-03-08T00:28:59;6.50;45.30
81842;DHT22;71284;50.918;7.092;2024-03-08T00:31:26;6.40;44.40
81842;DHT22;71284;50.918;7.092;2024-03-08T00:33:52;6.30;45.30
81842;DHT22;71284;50.918;7.092;2024-03-08T00:36:19;6.20;45.00
81842;DHT22;71284;50.918;7.092;2024-03-08T00:38:45;6.30;45.70
81842;DHT22;71284;50.918;7.092;2024-03-08T00:41:12;6.30;44.80
81842;DHT22;71284;50.918;7.092;2024-03-08T00:43:38;6.50;46.30
81842;DHT22;71284;50.918;7.092;2024-03-08T00:46:05;6.60;45.50
81842;DHT22;71284;50.918;7.092;2024-03-08T00:48:32;6.40;44.90
81842;DHT22;71284;50.918;7.092;2024-03-08T00:50:58;6.60;45.60
81842;DHT22;71284;50.918;7.092;2024-03-08T00:53:25;6.60;45.60
81842;DHT22;71284;50.918;7.092;2024-03-08T00:55:51;6.60;45.10
81842;DHT22;71284;50.918;7.092;2024-03-08T00:58:18;6.70;46.10
81842;DHT22;71284;50.918;7.092;2024-03-08T01:00:45;6.60;45.30
81842;DHT22;71284;50.918;7.092;2024-03-08T01:03:11;6.50;45.10
81842;DHT22;71284;50.918;7.092;2024-03-08T01:05:38;6.50;46.10
81842;DHT22;71284;50.918;7.092;2024-03-08T01:08:05;6.50;46.50
81842;DHT22;71284;50.918;7.092;2024-03-08T01:10:31;6.50;45.90
81842;DHT22;71284;50.918;7.092;2024-03-08T01:12:58;6.20;45.90
81842;DHT22;71284;50.918;7.092;2024-03-08T01:15:25;6.00;46.70
81842;DHT22;71284;50.918;7.092;2024-03-08T01:17:51;6.10;47.20
81842;DHT22;71284;50.918;7.092;2024-03-08T01:20:18;6.30;46.30
81842;DHT22;71284;50.918;7.092;2024-03-08T01:22:44;6.20;45.40
81842;DHT22;71284;50.918;7.092;2024-03-08T01:25:11;6.40;46.80
81842;DHT22;71284;50.918;7.092;2024-03-08T01:27:38;6.40;46.00
81842;DHT22;71284;50.918;7.092;2024-03-08T01:30:05;6.10;46.30
81842;DHT22;71284;50.918;7.092;2024-03-08T01:32:32;5.90;45.90
81842;DHT22;71284;50.918;7.092;2024-03-08T01:34:58;5.90;46.70
81842;DHT22;71284;50.918;7.092;2024-03-08T01:37:25;6.00;46.50
81842;DHT22;71284;50.918;7.092;2024-03-08T01:39:51;6.10;45.80
81842;DHT22;71284;50.918;7.092;2024-03-08T01:42:18;6.30;45.10
81842;DHT22;71284;50.918;7.092;2024-03-08T01:44:45;6.40;45.40
81842;DHT22;71284;50.918;7.092;2024-03-08T01:47:11;6.50;46.00
81842;DHT22;71284;50.918;7.092;2024-03-08T01:49:38;6.20;45.60
81842;DHT22;71284;50.918;7.092;2024-03-08T01:52:05;6.30;45.40
81842;DHT22;71284;50.918;7.092;2024-03-08T01:54:31;6.10;45.60
81842;DHT22;71284;50.918;7.092;2024-03-08T01:56:58;6.20;45.60
81842;DHT22;71284;50.918;7.092;2024-03-08T01:59:25;6.30;45.30
81842;DHT22;71284;50.918;7.092;2024-03-08T02:01:51;6.20;45.30
81842;DHT22;71284;50.918;7.092;2024-03-08T02:04:17;6.20;45.50
81842;DHT22;71284;50.918;7.092;2024-03-08T02:06:44;6.30;45.20
81842;DHT22;71284;50.918;7.092;2024-03-08T02:09:11;6.00;45.60
81842;DHT22;71284;50.918;7.092;2024-03-08T02:11:37;6.10;45.80
81842;DHT22;71284;50.918;7.092;2024-03-08T02:14:04;6.30;45.40
81842;DHT22;71284;50.918;7.092;2024-03-08T02:16:30;6.30;45.40
81842;DHT22;71284;50.918;7.092;2024-03-08T02:18:57;6.20;45.10
81842;DHT22;71284;50.918;7.092;2024-03-08T02:21:24;6.20;45.20
81842;DHT22;71284;50.918;7.092;2024-03-08T02:23:50;6.30;45.50
81842;DHT22;71284;50.918;7.092;2024-03-08T02:26:17;6.20;45.30
81842;DHT22;71284;50.918;7.092;2024-03-08T02:28:44;6.20;45.00
81842;DHT22;71284;50.918;7.092;2024-03-08T02:31:10;6.00;46.00
81842;DHT22;71284;50.918;7.092;2024-03-08T02:33:37;6.00;45.90
81842;DHT22;71284;50.918;7.092;2024-03-08T02:36:04;6.10;45.50
81842;DHT22;71284;50.918;7.092;2024-03-08T02:38:30;6.00;45.70
81842;DHT22;71284;50.918;7.092;2024-03-08T02:40:57;6.10;45.80
81842;DHT22;71284;50.918;7.092;2024-03-08T02:43:23;6.00;46.40
81842;DHT22;71284;50.918;7.092;2024-03-08T02:45:50;6.10;45.50
81842;DHT22;71284;50.918;7.092;2024-03-08T02:48:17;6.20;45.00
81842;DHT22;71284;50.918;7.092;2024-03-08T02:50:43;6.30;45.10
81842;DHT22;71284;50.918;7.092;2024-03-08T02:53:10;6.20;44.80
81842;DHT22;71284;50.918;7.092;2024-03-08T02:55:38;6.20;44.80
81842;DHT22;71284;50.918;7.092;2024-03-08T02:58:04;5.80;46.90
81842;DHT22;71284;50.918;7.092;2024-03-08T03:00:31;5.90;46.00
81842;DHT22;71284;50.918;7.092;2024-03-08T03:02:57;5.90;45.70
81842;DHT22;71284;50.918;7.092;2024-03-08T03:05:24;5.90;46.50
81842;DHT22;71284;50.918;7.092;2024-03-08T03:07:50;5.90;45.80
81842;DHT22;71284;50.918;7.092;2024-03-08T03:10:17;5.80;46.00
81842;DHT22;71284;50.918;7.092;2024-03-08T03:12:44;5.80;46.00
81842;DHT22;71284;50.918;7.092;2024-03-08T03:15:12;5.80;46.00
81842;DHT22;71284;50.918;7.092;2024-03-08T03:17:38;5.50;46.70
81842;DHT22;71284;50.918;7.092;2024-03-08T03:20:06;5.50;47.40
81842;DHT22;71284;50.918;7.092;2024-03-08T03:22:33;5.50;46.80
81842;DHT22;71284;50.918;7.092;2024-03-08T03:24:59;5.60;46.70
81842;DHT22;71284;50.918;7.092;2024-03-08T03:27:26;5.60;46.80
81842;DHT22;71284;50.918;7.092;2024-03-08T03:29:52;5.60;46.60
81842;DHT22;71284;50.918;7.092;2024-03-08T03:32:19;5.50;46.50
81842;DHT22;71284;50.918;7.092;2024-03-08T03:34:46;5.60;46.40
81842;DHT22;71284;50.918;7.092;2024-03-08T03:37:13;5.70;46.30
81842;DHT22;71284;50.918;7.092;2024-03-08T03:39:40;5.50;46.50
81842;DHT22;71284;50.918;7.092;2024-03-08T03:42:06;5.60;46.60
81842;DHT22;71284;50.918;7.092;2024-03-08T03:44:33;5.80;47.10
81842;DHT22;71284;50.918;7.092;2024-03-08T03:46:59;5.90;45.60
81842;DHT22;71284;50.918;7.092;2024-03-08T03:49:26;6.00;45.30
81842;DHT22;71284;50.918;7.092;2024-03-08T03:51:53;5.90;45.80
81842;DHT22;71284;50.918;7.092;2024-03-08T03:54:19;5.90;45.30
81842;DHT22;71284;50.918;7.092;2024-03-08T03:56:46;6.10;45.20
81842;DHT22;71284;50.918;7.092;2024-03-08T03:59:12;6.20;46.10
81842;DHT22;71284;50.918;7.092;2024-03-08T04:01:41;6.10;46.40
81842;DHT22;71284;50.918;7.092;2024-03-08T04:04:06;6.10;45.10
81842;DHT22;71284;50.918;7.092;2024-03-08T04:06:32;6.00;45.50
81842;DHT22;71284;50.918;7.092;2024-03-08T04:08:59;6.10;45.80
81842;DHT22;71284;50.918;7.092;2024-03-08T04:11:25;6.00;46.30
81842;DHT22;71284;50.918;7.092;2024-03-08T04:13:52;6.00;45.50
81842;DHT22;71284;50.918;7.092;2024-03-08T04:16:18;5.90;45.40
81842;DHT22;71284;50.918;7.092;2024-03-08T04:18:45;5.50;46.90
81842;DHT22;71284;50.918;7.092;2024-03-08T04:21:12;5.40;47.10
81842;DHT22;71284;50.918;7.092;2024-03-08T04:23:38;5.50;46.60
81842;DHT22;71284;50.918;7.092;2024-03-08T04:26:05;5.30;47.20
81842;DHT22;71284;50.918;7.092;2024-03-08T04:28:31;5.40;47.10
81842;DHT22;71284;50.918;7.092;2024-03-08T04:30:58;5.40;47.10
81842;DHT22;71284;50.918;7.092;2024-03-08T04:33:25;5.40;47.20
81842;DHT22;71284;50.918;7.092;2024-03-08T04:35:51;5.30;47.30
81842;DHT22;71284;50.918;7.092;2024-03-08T04:38:18;5.10;48.00
81842;DHT22;71284;50.918;7.092;2024-03-08T04:40:44;5.10;47.90
81842;DHT22;71284;50.918;7.092;2024-03-08T04:43:11;5.30;47.50
81842;DHT22;71284;50.918;7.092;2024-03-08T04:45:38;5.20;48.10
81842;DHT22;71284;50.918;7.092;2024-03-08T04:48:05;4.90;48.90
81842;DHT22;71284;50.918;7.092;2024-03-08T04:50:31;5.10;48.10
81842;DHT22;71284;50.918;7.092;2024-03-08T04:52:58;5.30;47.60
81842;DHT22;71284;50.918;7.092;2024-03-08T04:55:24;5.30;47.30
81842;DHT22;71284;50.918;7.092;2024-03-08T04:57:51;5.40;46.90
81842;DHT22;71284;50.918;7.092;2024-03-08T05:00:18;5.50;46.80
81842;DHT22;71284;50.918;7.092;2024-03-08T05:02:44;5.40;47.40
81842;DHT22;71284;50.918;7.092;2024-03-08T05:05:11;5.30;47.40
81842;DHT22;71284;50.918;7.092;2024-03-08T05:07:39;5.10;48.10
81842;DHT22;71284;50.918;7.092;2024-03-08T05:10:06;5.10;48.30
81842;DHT22;71284;50.918;7.092;2024-03-08T05:12:33;5.20;48.10
81842;DHT22;71284;50.918;7.092;2024-03-08T05:15:00;5.30;47.90
81842;DHT22;71284;50.918;7.092;2024-03-08T05:17:26;5.30;47.60
81842;DHT22;71284;50.918;7.092;2024-03-08T05:19:53;5.20;47.60
81842;DHT22;71284;50.918;7.092;2024-03-08T05:22:19;5.50;47.30
81842;DHT22;71284;50.918;7.092;2024-03-08T05:24:46;5.20;47.90
81842;DHT22;71284;50.918;7.092;2024-03-08T05:27:13;5.50;47.50
81842;DHT22;71284;50.918;7.092;2024-03-08T05:29:39;5.40;47.50
81842;DHT22;71284;50.918;7.092;2024-03-08T05:32:06;5.40;47.30
81842;DHT22;71284;50.918;7.092;2024-03-08T05:34:32;5.30;47.80
81842;DHT22;71284;50.918;7.092;2024-03-08T05:36:59;5.30;47.60
81842;DHT22;71284;50.918;7.092;2024-03-08T05:39:26;5.40;47.70
81842;DHT22;71284;50.918;7.092;2024-03-08T05:41:52;5.60;47.70
81842;DHT22;71284;50.918;7.092;2024-03-08T05:44:19;5.70;47.10
81842;DHT22;71284;50.918;7.092;2024-03-08T05:46:45;5.70;46.80
81842;DHT22;71284;50.918;7.092;2024-03-08T05:49:13;5.50;47.30
81842;DHT22;71284;50.918;7.092;2024-03-08T05:51:40;5.40;47.50
81842;DHT22;71284;50.918;7.092;2024-03-08T05:54:07;5.60;48.00
81842;DHT22;71284;50.918;7.092;2024-03-08T05:56:33;5.70;46.70
81842;DHT22;71284;50.918;7.092;2024-03-08T05:59:00;5.80;46.40
81842;DHT22;71284;50.918;7.092;2024-03-08T06:01:26;5.90;46.50
81842;DHT22;71284;50.918;7.092;2024-03-08T06:03:53;6.00;46.50
81842;DHT22;71284;50.918;7.092;2024-03-08T06:06:19;6.10;46.00
81842;DHT22;71284;50.918;7.092;2024-03-08T06:08:46;6.10;46.70
81842;DHT22;71284;50.918;7.092;2024-03-08T06:11:12;6.10;47.30
81842;DHT22;71284;50.918;7.092;2024-03-08T06:13:39;6.00;46.80
81842;DHT22;71284;50.918;7.092;2024-03-08T06:16:05;6.00;47.40
81842;DHT22;71284;50.918;7.092;2024-03-08T06:18:32;6.00;47.60
81842;DHT22;71284;50.918;7.092;2024-03-08T06:20:59;5.90;47.60
81842;DHT22;71284;50.918;7.092;2024-03-08T06:23:25;6.00;48.50
81842;DHT22;71284;50.918;7.092;2024-03-08T06:25:52;5.90;48.10
81842;DHT22;71284;50.918;7.092;2024-03-08T06:28:18;5.90;48.40
81842;DHT22;71284;50.918;7.092;2024-03-08T06:30:45;5.90;47.40
81842;DHT22;71284;50.918;7.092;2024-03-08T06:33:12;5.90;48.50
81842;DHT22;71284;50.918;7.092;2024-03-08T06:35:38;6.00;47.40
81842;DHT22;71284;50.918;7.092;2024-03-08T06:38:05;6.10;46.00
81842;DHT22;71284;50.918;7.092;2024-03-08T06:40:31;6.10;47.90
81842;DHT22;71284;50.918;7.092;2024-03-08T06:42:58;6.10;47.30
81842;DHT22;71284;50.918;7.092;2024-03-08T06:45:25;6.10;48.30
81842;DHT22;71284;50.918;7.092;2024-03-08T06:47:51;6.00;47.00
81842;DHT22;71284;50.918;7.092;2024-03-08T06:50:18;5.90;47.70
81842;DHT22;71284;50.918;7.092;2024-03-08T06:52:44;5.90;47.40
81842;DHT22;71284;50.918;7.092;2024-03-08T06:55:11;5.80;47.70
81842;DHT22;71284;50.918;7.092;2024-03-08T06:57:41;5.80;47.70
81842;DHT22;71284;50.918;7.092;2024-03-08T07:00:08;5.70;48.00
81842;DHT22;71284;50.918;7.092;2024-03-08T07:02:36;5.80;48.20
81842;DHT22;71284;50.918;7.092;2024-03-08T07:05:03;5.80;48.10
81842;DHT22;71284;50.918;7.092;2024-03-08T07:07:30;5.70;48.20
81842;DHT22;71284;50.918;7.092;2024-03-08T07:09:56;5.40;49.20
81842;DHT22;71284;50.918;7.092;2024-03-08T07:12:23;5.20;50.00
81842;DHT22;71284;50.918;7.092;2024-03-08T07:14:50;5.40;49.50
81842;DHT22;71284;50.918;7.092;2024-03-08T07:17:16;5.30;49.90
81842;DHT22;71284;50.918;7.092;2024-03-08T07:19:43;5.30;50.20
81842;DHT22;71284;50.918;7.092;2024-03-08T07:22:09;5.40;49.60
81842;DHT22;71284;50.918;7.092;2024-03-08T07:24:36;5.70;48.80
81842;DHT22;71284;50.918;7.092;2024-03-08T07:27:20;6.00;48.20
81842;DHT22;71284;50.918;7.092;2024-03-08T07:29:47;5.90;48.30
81842;DHT22;71284;50.918;7.092;2024-03-08T07:32:13;6.10;47.60
81842;DHT22;71284;50.918;7.092;2024-03-08T07:34:44;6.20;47.10
81842;DHT22;71284;50.918;7.092;2024-03-08T07:37:11;6.40;46.80
81842;DHT22;71284;50.918;7.092;2024-03-08T07:39:37;6.60;46.00
81842;DHT22;71284;50.918;7.092;2024-03-08T07:42:04;6.60;46.60
81842;DHT22;71284;50.918;7.092;2024-03-08T07:44:30;6.30;47.30
81842;DHT22;71284;50.918;7.092;2024-03-08T07:46:57;6.50;47.50
81842;DHT22;71284;50.918;7.092;2024-03-08T07:49:24;6.60;46.40
81842;DHT22;71284;50.918;7.092;2024-03-08T07:51:50;6.70;47.00
81842;DHT22;71284;50.918;7.092;2024-03-08T07:54:17;7.00;45.70
81842;DHT22;71284;50.918;7.092;2024-03-08T07:56:43;7.30;45.00
81842;DHT22;71284;50.918;7.092;2024-03-08T07:59:10;7.30;44.80
81842;DHT22;71284;50.918;7.092;2024-03-08T08:01:37;7.30;45.20
81842;DHT22;71284;50.918;7.092;2024-03-08T08:04:03;7.20;45.60
81842;DHT22;71284;50.918;7.092;2024-03-08T08:06:30;7.30;45.20
81842;DHT22;71284;50.918;7.092;2024-03-08T08:08:58;7.40;44.80
81842;DHT22;71284;50.918;7.092;2024-03-08T08:11:26;7.60;44.20
81842;DHT22;71284;50.918;7.092;2024-03-08T08:13:52;7.90;43.70
81842;DHT22;71284;50.918;7.092;2024-03-08T08:16:19;8.20;43.20
81842;DHT22;71284;50.918;7.092;2024-03-08T08:18:45;7.80;43.70
81842;DHT22;71284;50.918;7.092;2024-03-08T08:21:12;7.80;43.60
81842;DHT22;71284;50.918;7.092;2024-03-08T08:23:38;7.70;44.30
81842;DHT22;71284;50.918;7.092;2024-03-08T08:26:05;7.80;44.30
81842;DHT22;71284;50.918;7.092;2024-03-08T08:28:32;8.50;42.70
81842;DHT22;71284;50.918;7.092;2024-03-08T08:30:58;9.00;41.30
81842;DHT22;71284;50.918;7.092;2024-03-08T08:33:25;9.20;41.10
81842;DHT22;71284;50.918;7.092;2024-03-08T08:35:51;9.40;40.10
81842;DHT22;71284;50.918;7.092;2024-03-08T08:38:18;9.40;40.40
81842;DHT22;71284;50.918;7.092;2024-03-08T08:40:45;9.20;41.30
81842;DHT22;71284;50.918;7.092;2024-03-08T08:43:11;9.70;40.00
81842;DHT22;71284;50.918;7.092;2024-03-08T08:45:38;9.80;39.90
81842;DHT22;71284;50.918;7.092;2024-03-08T08:48:05;10.00;38.90
81842;DHT22;71284;50.918;7.092;2024-03-08T08:50:32;10.10;39.10
81842;DHT22;71284;50.918;7.092;2024-03-08T08:52:58;10.30;39.00
81842;DHT22;71284;50.918;7.092;2024-03-08T08:55:25;9.80;39.20
81842;DHT22;71284;50.918;7.092;2024-03-08T08:57:52;9.60;39.90
81842;DHT22;71284;50.918;7.092;2024-03-08T09:00:19;9.30;41.00
81842;DHT22;71284;50.918;7.092;2024-03-08T09:02:45;9.40;40.60
81842;DHT22;71284;50.918;7.092;2024-03-08T09:05:11;9.30;40.60
81842;DHT22;71284;50.918;7.092;2024-03-08T09:07:38;9.10;41.40
81842;DHT22;71284;50.918;7.092;2024-03-08T09:10:05;9.40;40.40
81842;DHT22;71284;50.918;7.092;2024-03-08T09:12:32;9.50;40.10
81842;DHT22;71284;50.918;7.092;2024-03-08T09:14:58;9.40;40.90
81842;DHT22;71284;50.918;7.092;2024-03-08T09:17:25;9.00;41.30
81842;DHT22;71284;50.918;7.092;2024-03-08T09:19:52;9.20;41.80
81842;DHT22;71284;50.918;7.092;2024-03-08T09:22:18;9.50;41.10
81842;DHT22;71284;50.918;7.092;2024-03-08T09:24:45;9.80;40.50
81842;DHT22;71284;50.918;7.092;2024-03-08T09:27:11;9.60;39.70
81842;DHT22;71284;50.918;7.092;2024-03-08T09:29:38;9.40;39.90
81842;DHT22;71284;50.918;7.092;2024-03-08T09:32:05;9.30;40.90
81842;DHT22;71284;50.918;7.092;2024-03-08T09:34:31;9.90;40.60
81842;DHT22;71284;50.918;7.092;2024-03-08T09:36:58;10.20;39.50
81842;DHT22;71284;50.918;7.092;2024-03-08T09:39:24;10.60;39.30
81842;DHT22;71284;50.918;7.092;2024-03-08T09:41:51;10.50;37.90
81842;DHT22;71284;50.918;7.092;2024-03-08T09:44:17;10.20;38.90
81842;DHT22;71284;50.918;7.092;2024-03-08T09:46:45;10.10;39.10
81842;DHT22;71284;50.918;7.092;2024-03-08T09:49:11;10.00;39.30
81842;DHT22;71284;50.918;7.092;2024-03-08T09:51:37;10.00;39.20
81842;DHT22;71284;50.918;7.092;2024-03-08T09:54:04;10.50;39.10
81842;DHT22;71284;50.918;7.092;2024-03-08T09:56:32;10.40;39.10
81842;DHT22;71284;50.918;7.092;2024-03-08T09:58:59;10.20;38.80
81842;DHT22;71284;50.918;7.092;2024-03-08T10:01:32;10.40;39.60
81842;DHT22;71284;50.918;7.092;2024-03-08T10:03:59;10.70;38.50
81842;DHT22;71284;50.918;7.092;2024-03-08T10:06:25;10.60;38.50
81842;DHT22;71284;50.918;7.092;2024-03-08T10:08:52;10.40;38.30
81842;DHT22;71284;50.918;7.092;2024-03-08T10:11:18;10.40;38.70
81842;DHT22;71284;50.918;7.092;2024-03-08T10:13:46;10.20;38.40
81842;DHT22;71284;50.918;7.092;2024-03-08T10:16:12;10.30;37.80
81842;DHT22;71284;50.918;7.092;2024-03-08T10:18:38;10.50;37.40
81842;DHT22;71284;50.918;7.092;2024-03-08T10:21:06;10.60;36.80
81842;DHT22;71284;50.918;7.092;2024-03-08T10:23:31;11.10;35.50
81842;DHT22;71284;50.918;7.092;2024-03-08T10:25:59;10.90;35.80
81842;DHT22;71284;50.918;7.092;2024-03-08T10:28:24;10.80;36.80
81842;DHT22;71284;50.918;7.092;2024-03-08T10:30:51;11.20;35.20
81842;DHT22;71284;50.918;7.092;2024-03-08T10:33:18;11.20;35.50
81842;DHT22;71284;50.918;7.092;2024-03-08T10:35:44;11.50;35.90
81842;DHT22;71284;50.918;7.092;2024-03-08T10:38:11;11.50;35.00
81842;DHT22;71284;50.918;7.092;2024-03-08T10:40:38;11.60;35.20
81842;DHT22;71284;50.918;7.092;2024-03-08T10:43:04;11.30;35.80
81842;DHT22;71284;50.918;7.092;2024-03-08T10:45:31;11.20;35.50
81842;DHT22;71284;50.918;7.092;2024-03-08T10:50:45;11.80;35.00
81842;DHT22;71284;50.918;7.092;2024-03-08T10:53:13;11.70;34.30
81842;DHT22;71284;50.918;7.092;2024-03-08T10:55:39;11.70;34.50
81842;DHT22;71284;50.918;7.092;2024-03-08T10:58:05;11.60;34.60
81842;DHT22;71284;50.918;7.092;2024-03-08T11:00:32;12.20;34.20
81842;DHT22;71284;50.918;7.092;2024-03-08T11:02:58;13.00;33.40
81842;DHT22;71284;50.918;7.092;2024-03-08T11:05:31;13.20;32.10
81842;DHT22;71284;50.918;7.092;2024-03-08T11:07:57;12.40;32.60
81842;DHT22;71284;50.918;7.092;2024-03-08T11:10:24;12.90;32.70
81842;DHT22;71284;50.918;7.092;2024-03-08T11:12:50;12.70;32.40
81842;DHT22;71284;50.918;7.092;2024-03-08T11:15:17;12.70;32.10
81842;DHT22;71284;50.918;7.092;2024-03-08T11:17:47;12.80;32.20
81842;DHT22;71284;50.918;7.092;2024-03-08T11:20:13;13.00;32.40
81842;DHT22;71284;50.918;7.092;2024-03-08T11:22:39;13.00;32.40
81842;DHT22;71284;50.918;7.092;2024-03-08T11:25:08;12.70;31.50
81842;DHT22;71284;50.918;7.092;2024-03-08T11:27:33;13.10;31.40
81842;DHT22;71284;50.918;7.092;2024-03-08T11:30:02;13.10;31.00
81842;DHT22;71284;50.918;7.092;2024-03-08T11:32:29;13.50;31.50
81842;DHT22;71284;50.918;7.092;2024-03-08T11:34:54;14.70;29.40
81842;DHT22;71284;50.918;7.092;2024-03-08T11:37:21;15.10;29.00
81842;DHT22;71284;50.918;7.092;2024-03-08T11:39:49;15.10;28.50
81842;DHT22;71284;50.918;7.092;2024-03-08T11:42:15;15.80;27.60
81842;DHT22;71284;50.918;7.092;2024-03-08T11:44:42;16.00;27.20
81842;DHT22;71284;50.918;7.092;2024-03-08T11:47:09;17.10;26.30
81842;DHT22;71284;50.918;7.092;2024-03-08T11:49:35;17.60;24.50
81842;DHT22;71284;50.918;7.092;2024-03-08T11:52:02;16.60;25.90
81842;DHT22;71284;50.918;7.092;2024-03-08T11:54:28;16.70;26.40
81842;DHT22;71284;50.918;7.092;2024-03-08T11:56:56;17.40;26.00
81842;DHT22;71284;50.918;7.092;2024-03-08T11:59:23;17.60;24.30
81842;DHT22;71284;50.918;7.092;2024-03-08T12:01:59;17.50;24.30
81842;DHT22;71284;50.918;7.092;2024-03-08T12:04:26;16.50;25.50
81842;DHT22;71284;50.918;7.092;2024-03-08T12:06:52;16.10;26.00
81842;DHT22;71284;50.918;7.092;2024-03-08T12:09:19;15.30;27.30
81842;DHT22;71284;50.918;7.092;2024-03-08T12:11:48;15.70;27.30
81842;DHT22;71284;50.918;7.092;2024-03-08T12:14:15;16.20;26.40
81842;DHT22;71284;50.918;7.092;2024-03-08T12:16:41;15.60;27.00
81842;DHT22;71284;50.918;7.092;2024-03-08T12:19:09;15.90;26.90
81842;DHT22;71284;50.918;7.092;2024-03-08T12:21:35;15.90;27.20
81842;DHT22;71284;50.918;7.092;2024-03-08T12:24:07;15.30;28.00
81842;DHT22;71284;50.918;7.092;2024-03-08T12:26:36;15.30;27.90
81842;DHT22;71284;50.918;7.092;2024-03-08T12:31:41;15.90;27.50
81842;DHT22;71284;50.918;7.092;2024-03-08T12:34:07;15.80;26.10
81842;DHT22;71284;50.918;7.092;2024-03-08T12:36:34;15.20;26.70
81842;DHT22;71284;50.918;7.092;2024-03-08T12:39:00;15.60;26.70
81842;DHT22;71284;50.918;7.092;2024-03-08T12:41:27;15.60;26.80
81842;DHT22;71284;50.918;7.092;2024-03-08T12:43:54;15.80;26.80
81842;DHT22;71284;50.918;7.092;2024-03-08T12:46:21;16.10;26.50
81842;DHT22;71284;50.918;7.092;2024-03-08T12:48:47;16.40;25.80
81842;DHT22;71284;50.918;7.092;2024-03-08T12:51:14;16.80;25.10
81842;DHT22;71284;50.918;7.092;2024-03-08T12:53:40;16.20;25.90
81842;DHT22;71284;50.918;7.092;2024-03-08T12:56:07;16.00;26.90
81842;DHT22;71284;50.918;7.092;2024-03-08T12:58:34;16.00;26.90
81842;DHT22;71284;50.918;7.092;2024-03-08T13:01:00;16.00;27.20
81842;DHT22;71284;50.918;7.092;2024-03-08T13:03:27;16.00;26.20
81842;DHT22;71284;50.918;7.092;2024-03-08T13:05:54;15.70;26.70
81842;DHT22;71284;50.918;7.092;2024-03-08T13:08:20;15.30;27.60
81842;DHT22;71284;50.918;7.092;2024-03-08T13:10:47;15.50;27.60
81842;DHT22;71284;50.918;7.092;2024-03-08T13:13:13;15.90;27.10
81842;DHT22;71284;50.918;7.092;2024-03-08T13:15:41;16.50;25.50
81842;DHT22;71284;50.918;7.092;2024-03-08T13:18:07;17.00;25.70
81842;DHT22;71284;50.918;7.092;2024-03-08T13:20:34;17.00;25.50
81842;DHT22;71284;50.918;7.092;2024-03-08T13:23:01;16.50;25.40
81842;DHT22;71284;50.918;7.092;2024-03-08T13:25:27;16.20;26.10
81842;DHT22;71284;50.918;7.092;2024-03-08T13:27:54;17.00;25.70
81842;DHT22;71284;50.918;7.092;2024-03-08T13:30:20;17.70;24.90
81842;DHT22;71284;50.918;7.092;2024-03-08T13:32:47;17.20;24.70
81842;DHT22;71284;50.918;7.092;2024-03-08T13:35:14;17.40;25.50
81842;DHT22;71284;50.918;7.092;2024-03-08T13:37:40;17.00;25.50
81842;DHT22;71284;50.918;7.092;2024-03-08T13:40:09;17.00;25.20
81842;DHT22;71284;50.918;7.092;2024-03-08T13:42:38;18.10;24.70
81842;DHT22;71284;50.918;7.092;2024-03-08T13:45:06;19.20;23.00
81842;DHT22;71284;50.918;7.092;2024-03-08T13:47:32;19.80;21.90
81842;DHT22;71284;50.918;7.092;2024-03-08T13:49:59;19.90;22.30
81842;DHT22;71284;50.918;7.092;2024-03-08T13:52:26;19.70;22.30
81842;DHT22;71284;50.918;7.092;2024-03-08T13:54:52;19.90;22.10
81842;DHT22;71284;50.918;7.092;2024-03-08T13:57:19;20.10;22.40
81842;DHT22;71284;50.918;7.092;2024-03-08T13:59:46;19.40;22.30
81842;DHT22;71284;50.918;7.092;2024-03-08T14:02:12;18.30;24.00
81842;DHT22;71284;50.918;7.092;2024-03-08T14:04:39;18.10;24.50
81842;DHT22;71284;50.918;7.092;2024-03-08T14:07:05;17.70;25.40
81842;DHT22;71284;50.918;7.092;2024-03-08T14:09:32;16.20;27.00
81842;DHT22;71284;50.918;7.092;2024-03-08T14:11:59;15.30;29.10
81842;DHT22;71284;50.918;7.092;2024-03-08T14:14:25;15.50;27.90
81842;DHT22;71284;50.918;7.092;2024-03-08T14:16:52;15.30;28.10
81842;DHT22;71284;50.918;7.092;2024-03-08T14:19:19;15.40;28.40
81842;DHT22;71284;50.918;7.092;2024-03-08T14:21:46;15.50;28.80
81842;DHT22;71284;50.918;7.092;2024-03-08T14:24:12;15.60;28.50
81842;DHT22;71284;50.918;7.092;2024-03-08T14:26:39;14.90;29.10
81842;DHT22;71284;50.918;7.092;2024-03-08T14:29:06;15.20;28.80
81842;DHT22;71284;50.918;7.092;2024-03-08T14:31:32;14.80;28.80
81842;DHT22;71284;50.918;7.092;2024-03-08T14:33:59;14.90;28.90
81842;DHT22;71284;50.918;7.092;2024-03-08T14:36:25;14.80;29.70
81842;DHT22;71284;50.918;7.092;2024-03-08T14:38:52;15.10;29.20
81842;DHT22;71284;50.918;7.092;2024-03-08T14:41:19;15.20;28.90
81842;DHT22;71284;50.918;7.092;2024-03-08T14:43:45;15.20;28.80
81842;DHT22;71284;50.918;7.092;2024-03-08T14:46:12;14.90;28.80
81842;DHT22;71284;50.918;7.092;2024-03-08T14:48:40;14.70;28.90
81842;DHT22;71284;50.918;7.092;2024-03-08T14:51:07;14.80;28.80
81842;DHT22;71284;50.918;7.092;2024-03-08T14:53:33;15.20;28.60
81842;DHT22;71284;50.918;7.092;2024-03-08T14:56:00;15.30;28.40
81842;DHT22;71284;50.918;7.092;2024-03-08T14:58:26;15.40;29.20
81842;DHT22;71284;50.918;7.092;2024-03-08T15:00:53;14.90;28.90
81842;DHT22;71284;50.918;7.092;2024-03-08T15:03:20;14.80;29.70
81842;DHT22;71284;50.918;7.092;2024-03-08T15:05:46;14.70;29.70
81842;DHT22;71284;50.918;7.092;2024-03-08T15:08:13;14.60;29.60
81842;DHT22;71284;50.918;7.092;2024-03-08T15:10:39;14.80;29.50
81842;DHT22;71284;50.918;7.092;2024-03-08T15:13:06;15.00;29.40
81842;DHT22;71284;50.918;7.092;2024-03-08T15:15:33;15.20;28.70
81842;DHT22;71284;50.918;7.092;2024-03-08T15:17:59;15.20;29.00
81842;DHT22;71284;50.918;7.092;2024-03-08T15:20:26;14.90;29.60
81842;DHT22;71284;50.918;7.092;2024-03-08T15:22:52;15.10;30.00
81842;DHT22;71284;50.918;7.092;2024-03-08T15:25:19;15.10;29.30
81842;DHT22;71284;50.918;7.092;2024-03-08T15:27:47;15.00;28.60
81842;DHT22;71284;50.918;7.092;2024-03-08T15:30:13;15.00;28.30
81842;DHT22;71284;50.918;7.092;2024-03-08T15:32:44;15.00;28.80
81842;DHT22;71284;50.918;7.092;2024-03-08T15:35:07;15.20;28.50
81842;DHT22;71284;50.918;7.092;2024-03-08T15:37:34;15.30;28.30
81842;DHT22;71284;50.918;7.092;2024-03-08T15:40:00;15.20;28.10
81842;DHT22;71284;50.918;7.092;2024-03-08T15:42:27;14.70;29.40